M I D A S
Marine Information and Data Acquisition System
Tripno 1498 of the Zeeleeuw from 2008-06-03 06:19:20 to 2008-06-03 13:06:08
Back to CruiseResearch ActivitiesStationsMapUnderway DataData graphs

EquipmentUnitsComment
TimeDGPSUTC
LatitudeDGPSDM.mWGS84
LongitudeDGPSDM.mWGS84
HeadingGyrodeg 
SOGDGPSknotsSpeed over ground
COGDGPSdegCourse over ground
DepthEcho soundermeters200 kHz
Missing or incorrect values are displayed as -999
Navigation data collected by the RV Zeeleeuw from 2008-06-03 06:22:14 to 2008-06-03 13:07:22
                                                                                    Next 1000 lines
Time Latitude Longitude Heading SOG COG Depth
2008-06-03 06:22:24 51°13.623 2°56.045 111.3 1.1 301 -999
2008-06-03 06:22:29 51°13.624 2°56.042 111.3 1.6 296 -999
2008-06-03 06:22:34 51°13.625 2°56.039 111.3 2 297 -999
2008-06-03 06:22:39 51°13.626 2°56.034 111.1 2.4 295 -999
2008-06-03 06:22:44 51°13.628 2°56.029 110.9 2.7 295 -999
2008-06-03 06:22:49 51°13.63 2°56.023 111 3 295 -999
2008-06-03 06:22:54 51°13.632 2°56.016 111.3 3.3 296 -999
2008-06-03 06:22:59 51°13.634 2°56.009 111.6 3.5 295 -999
2008-06-03 06:23:04 51°13.636 2°56.002 111.5 3.7 296 -999
2008-06-03 06:23:09 51°13.638 2°55.994 111 3.8 295 -999
2008-06-03 06:23:14 51°13.641 2°55.986 110.2 4 294 -999
2008-06-03 06:23:19 51°13.643 2°55.978 109.4 4 293 6.1
2008-06-03 06:23:24 51°13.645 2°55.97 108.2 3.9 292 -999
2008-06-03 06:23:29 51°13.646 2°55.962 107 3.7 289 -999
2008-06-03 06:23:34 51°13.648 2°55.955 104.7 3.3 288 -999
2008-06-03 06:23:39 51°13.649 2°55.949 103.6 2.7 290 6.9
2008-06-03 06:23:44 51°13.65 2°55.946 103 1.8 290 7.1
2008-06-03 06:23:50 51°13.651 2°55.943 103.6 0.9 298 7.3
2008-06-03 06:23:55 51°13.651 2°55.942 105.3 0.8 291 7.3
2008-06-03 06:24:00 51°13.652 2°55.94 108.8 0.8 290 7.5
2008-06-03 06:24:05 51°13.652 2°55.938 111.4 1.2 297 7.4
2008-06-03 06:24:10 51°13.653 2°55.934 112.3 1.5 294 7.8
2008-06-03 06:24:15 51°13.654 2°55.93 112.4 2.1 293 7.8
2008-06-03 06:24:20 51°13.656 2°55.925 112.4 2.4 293 7.8
2008-06-03 06:24:25 51°13.657 2°55.92 112.1 2.7 293 7.7
2008-06-03 06:24:30 51°13.659 2°55.914 111.9 3 294 -999
2008-06-03 06:24:35 51°13.661 2°55.907 111.8 3.3 294 -999
2008-06-03 06:24:40 51°13.663 2°55.9 111.8 3.5 294 -999
2008-06-03 06:24:45 51°13.665 2°55.892 111.9 3.7 294 -999
2008-06-03 06:24:50 51°13.667 2°55.884 111.9 3.8 293 -999
2008-06-03 06:24:55 51°13.669 2°55.876 111.8 3.9 294 -999
2008-06-03 06:25:00 51°13.671 2°55.868 111.4 3.9 292 -999
2008-06-03 06:25:05 51°13.673 2°55.86 110.9 3.9 292 -999
2008-06-03 06:25:10 51°13.675 2°55.852 110.4 4 292 -999
2008-06-03 06:25:15 51°13.677 2°55.844 110 4 292 -999
2008-06-03 06:25:20 51°13.68 2°55.836 109.6 4 292 -999
2008-06-03 06:25:25 51°13.682 2°55.827 108.9 3.9 292 -999
2008-06-03 06:25:30 51°13.683 2°55.82 108.3 3.7 291 -999
2008-06-03 06:25:35 51°13.685 2°55.812 107.6 3.5 292 -999
2008-06-03 06:25:40 51°13.687 2°55.806 106.9 3.4 292 -999
2008-06-03 06:25:45 51°13.689 2°55.799 106.2 3.2 292 7.5
2008-06-03 06:25:50 51°13.69 2°55.793 105.4 2.9 291 -999
2008-06-03 06:25:55 51°13.692 2°55.788 104.6 2.7 292 8.2
2008-06-03 06:26:00 51°13.693 2°55.782 103.4 2.5 291 8.8
2008-06-03 06:26:04 51°13.694 2°55.779 101.8 2.4 291 9.3
2008-06-03 06:26:10 51°13.695 2°55.773 100.3 2.3 290 10.1
2008-06-03 06:26:15 51°13.696 2°55.769 98.8 2.1 290 10.6
2008-06-03 06:26:20 51°13.696 2°55.765 97.3 2 289 11.3
2008-06-03 06:26:25 51°13.697 2°55.761 95.5 1.7 288 -999
2008-06-03 06:26:30 51°13.698 2°55.758 93.4 1.5 289 11.4
2008-06-03 06:26:35 51°13.698 2°55.755 91.7 1.2 295 -999
2008-06-03 06:26:40 51°13.699 2°55.754 89.3 0.8 297 -999
2008-06-03 06:26:45 51°13.7 2°55.753 86.3 0.6 314 -999
2008-06-03 06:26:50 51°13.7 2°55.752 82.3 0.5 333 -999
2008-06-03 06:26:55 51°13.701 2°55.752 78.1 0.5 7 -999
2008-06-03 06:27:00 51°13.702 2°55.753 73.3 0.8 33 11.9
2008-06-03 06:27:05 51°13.703 2°55.754 70.1 0.9 26 11.7
2008-06-03 06:27:10 51°13.704 2°55.754 64.7 0.6 11 -999
2008-06-03 06:27:15 51°13.705 2°55.754 59.8 0.5 342 -999
2008-06-03 06:27:20 51°13.705 2°55.753 55.3 0.6 286 -999
2008-06-03 06:27:25 51°13.705 2°55.751 51.6 1 266 -999
2008-06-03 06:27:30 51°13.704 2°55.748 48.2 1.2 251 11.8
2008-06-03 06:27:35 51°13.704 2°55.745 45.6 1.4 245 11.8
2008-06-03 06:27:40 51°13.703 2°55.742 43.1 1.4 243 11.7
2008-06-03 06:27:45 51°13.702 2°55.74 40.7 1.2 244 11.6
2008-06-03 06:27:50 51°13.702 2°55.738 38.4 0.9 253 11.5
2008-06-03 06:27:55 51°13.702 2°55.737 35.1 0.5 328 -999
2008-06-03 06:28:00 51°13.704 2°55.737 29.5 1.1 356 -999
2008-06-03 06:28:05 51°13.707 2°55.737 24.1 2 -999 -999
2008-06-03 06:28:10 51°13.71 2°55.737 13.3 2.7 356 11.4
2008-06-03 06:28:15 51°13.715 2°55.736 5.3 3.3 347 11.2
2008-06-03 06:28:20 51°13.72 2°55.733 359.1 3.8 342 11.1
2008-06-03 06:28:24 51°13.725 2°55.729 350.7 4.5 335 10.6
2008-06-03 06:28:30 51°13.732 2°55.722 340.5 5.3 328 9.9
2008-06-03 06:28:35 51°13.739 2°55.715 332.9 5.8 328 9
2008-06-03 06:28:40 51°13.746 2°55.707 329.8 6.2 327 8.8
2008-06-03 06:28:44 51°13.753 2°55.701 329.3 6.5 328 8.5
2008-06-03 06:28:50 51°13.762 2°55.692 329.5 6.8 328 8.5
2008-06-03 06:28:55 51°13.771 2°55.683 330.2 7.1 329 8.5
2008-06-03 06:29:00 51°13.78 2°55.675 331 7.3 330 8.6
2008-06-03 06:29:05 51°13.789 2°55.667 331.6 7.5 331 8.6
2008-06-03 06:29:10 51°13.798 2°55.659 332.3 7.6 332 8.9
2008-06-03 06:29:15 51°13.808 2°55.651 333.2 7.8 333 8.8
2008-06-03 06:29:20 51°13.818 2°55.643 333.9 7.9 334 8.7
2008-06-03 06:29:25 51°13.827 2°55.635 334.8 8 334 8.9
2008-06-03 06:29:30 51°13.838 2°55.628 335 8.1 334 8.8
2008-06-03 06:29:35 51°13.848 2°55.62 335 8.2 335 8.8
2008-06-03 06:29:40 51°13.858 2°55.612 335.4 8.2 335 8.9
2008-06-03 06:29:45 51°13.869 2°55.604 335.6 8.3 334 8.9
2008-06-03 06:29:50 51°13.879 2°55.596 335.6 8.5 335 8.9
2008-06-03 06:29:55 51°13.89 2°55.588 335.6 8.5 335 9.4
2008-06-03 06:29:59 51°13.899 2°55.582 335.9 8.6 335 9.1
2008-06-03 06:30:05 51°13.911 2°55.572 336.1 8.6 335 9.1
2008-06-03 06:30:10 51°13.923 2°55.565 336.4 8.7 337 9
2008-06-03 06:30:15 51°13.934 2°55.557 337.4 8.6 335 9.1
2008-06-03 06:30:20 51°13.945 2°55.549 337.8 8.7 335 9.1
2008-06-03 06:30:24 51°13.953 2°55.542 337.3 8.7 335 9.1
2008-06-03 06:30:30 51°13.967 2°55.532 336.9 8.7 336 9
2008-06-03 06:30:35 51°13.978 2°55.525 337.4 8.7 337 9.1
2008-06-03 06:30:40 51°13.989 2°55.516 338.3 8.7 335 9.1
2008-06-03 06:30:44 51°13.997 2°55.509 337.3 8.7 334 9.1
2008-06-03 06:30:50 51°14.01 2°55.5 335.8 8.7 335 9.1
2008-06-03 06:30:55 51°14.021 2°55.492 336.1 8.5 335 9
2008-06-03 06:31:00 51°14.031 2°55.484 336.9 8.2 335 9
2008-06-03 06:31:04 51°14.039 2°55.478 336.8 8 335 9
2008-06-03 06:31:10 51°14.051 2°55.469 336.7 7.8 335 9
2008-06-03 06:31:15 51°14.06 2°55.462 336.8 7.6 335 9
2008-06-03 06:31:20 51°14.07 2°55.455 336.8 7.4 334 9
2008-06-03 06:31:25 51°14.079 2°55.448 336.5 7.3 334 9.1
2008-06-03 06:31:30 51°14.088 2°55.441 335.9 7.2 334 9.1
2008-06-03 06:31:35 51°14.096 2°55.434 335.7 7.1 334 9.1
2008-06-03 06:31:40 51°14.105 2°55.427 335.8 7.2 333 9.1
2008-06-03 06:31:45 51°14.115 2°55.419 336 7.4 333 9.4
2008-06-03 06:31:50 51°14.124 2°55.411 335.8 7.5 332 9.1
2008-06-03 06:31:55 51°14.133 2°55.403 334.8 7.8 332 9.1
2008-06-03 06:32:00 51°14.143 2°55.394 334.2 8 330 9.5
2008-06-03 06:32:05 51°14.153 2°55.385 333 8.2 329 9.1
2008-06-03 06:32:10 51°14.163 2°55.375 332.1 8.3 329 9.1
2008-06-03 06:32:15 51°14.172 2°55.365 331.6 8.5 327 9.1
2008-06-03 06:32:19 51°14.181 2°55.356 330.6 8.6 326 9
2008-06-03 06:32:25 51°14.192 2°55.343 329.4 8.7 325 9.1
2008-06-03 06:32:30 51°14.202 2°55.332 328 8.7 324 9.1
2008-06-03 06:32:35 51°14.212 2°55.32 327.4 8.8 322 9.1
2008-06-03 06:32:40 51°14.221 2°55.308 326.5 8.9 321 9.1
2008-06-03 06:32:44 51°14.229 2°55.297 325.1 8.9 320 9
2008-06-03 06:32:50 51°14.24 2°55.282 323.6 9 319 9.6
2008-06-03 06:32:55 51°14.25 2°55.269 322.4 9 319 9
2008-06-03 06:33:00 51°14.259 2°55.255 321.8 9 317 9
2008-06-03 06:33:04 51°14.266 2°55.244 320.4 9 316 9
2008-06-03 06:33:10 51°14.277 2°55.227 319.4 9 315 8.8
2008-06-03 06:33:15 51°14.285 2°55.213 318.5 9 313 8.8
2008-06-03 06:33:20 51°14.294 2°55.198 316.7 9 312 8.8
2008-06-03 06:33:24 51°14.3 2°55.186 315.2 9.2 312 8.8
2008-06-03 06:33:30 51°14.311 2°55.167 314.5 9.3 312 8.8
2008-06-03 06:33:35 51°14.319 2°55.151 314.3 9.5 312 8.9
2008-06-03 06:33:40 51°14.328 2°55.135 314.3 9.7 312 8.9
2008-06-03 06:33:45 51°14.338 2°55.119 314.3 9.8 312 9.2
2008-06-03 06:33:50 51°14.347 2°55.103 314.4 10 311 9.9
2008-06-03 06:33:55 51°14.356 2°55.085 313.9 10.2 309 9.3
2008-06-03 06:34:00 51°14.365 2°55.067 312.6 10.4 308 9.8
2008-06-03 06:34:05 51°14.373 2°55.048 311.9 10.6 308 9.7
2008-06-03 06:34:10 51°14.383 2°55.029 311.2 10.8 307 9.4
2008-06-03 06:34:15 51°14.392 2°55.009 310.8 11.1 307 9
2008-06-03 06:34:19 51°14.399 2°54.993 310.8 11.3 306 9
2008-06-03 06:34:25 51°14.41 2°54.968 310.6 11.5 305 9
2008-06-03 06:34:30 51°14.42 2°54.946 310 11.8 305 9.1
2008-06-03 06:34:35 51°14.43 2°54.925 310.1 12 305 9.3
2008-06-03 06:34:40 51°14.44 2°54.903 311 12.2 307 9.3
2008-06-03 06:34:45 51°14.45 2°54.882 311.8 12.3 308 9.3
2008-06-03 06:34:50 51°14.462 2°54.862 313.1 12.2 313 9.5
2008-06-03 06:34:55 51°14.475 2°54.844 317.4 12.2 318 9.2
2008-06-03 06:35:00 51°14.488 2°54.827 322.7 12.2 320 9.2
2008-06-03 06:35:04 51°14.499 2°54.814 326.5 12.2 322 9.2
2008-06-03 06:35:10 51°14.514 2°54.793 328.4 12.3 321 8.9
2008-06-03 06:35:15 51°14.528 2°54.777 328.6 12.3 323 8.8
2008-06-03 06:35:20 51°14.542 2°54.76 329.4 12.3 324 8.7
2008-06-03 06:35:24 51°14.553 2°54.748 330.8 12.3 324 8.6
2008-06-03 06:35:30 51°14.57 2°54.728 331.7 12.4 323 8.5
2008-06-03 06:35:35 51°14.583 2°54.712 332.2 12.4 324 8.4
2008-06-03 06:35:40 51°14.597 2°54.695 332.7 12.4 323 8.4
2008-06-03 06:35:44 51°14.608 2°54.683 333.1 12.3 325 8.4
2008-06-03 06:35:50 51°14.625 2°54.664 334.4 12.4 324 8.4
2008-06-03 06:35:55 51°14.639 2°54.648 334.8 12.3 325 8.4
2008-06-03 06:36:00 51°14.653 2°54.633 335.1 12.3 325 8.3
2008-06-03 06:36:05 51°14.667 2°54.618 335.6 12.3 326 8.4
2008-06-03 06:36:10 51°14.682 2°54.602 336 12.4 325 8.4
2008-06-03 06:36:15 51°14.696 2°54.587 336 12.4 326 8.5
2008-06-03 06:36:20 51°14.71 2°54.572 336 12.3 326 8.4
2008-06-03 06:36:25 51°14.724 2°54.557 336.3 12.3 326 8.4
2008-06-03 06:36:30 51°14.738 2°54.542 336.2 12.3 327 8.4
2008-06-03 06:36:35 51°14.752 2°54.527 336.7 12.3 327 8.3
2008-06-03 06:36:40 51°14.766 2°54.512 336.7 12.2 326 8.3
2008-06-03 06:36:45 51°14.78 2°54.496 336 12.2 325 8.3
2008-06-03 06:36:50 51°14.794 2°54.481 335.6 12.2 325 8.3
2008-06-03 06:36:55 51°14.808 2°54.465 335.3 12.2 325 8.4
2008-06-03 06:37:00 51°14.822 2°54.449 335.2 12.2 324 8.2
2008-06-03 06:37:05 51°14.835 2°54.433 334.8 12.2 324 8.1
2008-06-03 06:37:10 51°14.849 2°54.418 334.5 12.1 324 8.3
2008-06-03 06:37:15 51°14.862 2°54.402 334.5 12.1 325 8.3
2008-06-03 06:37:20 51°14.876 2°54.387 335 12 325 8.2
2008-06-03 06:37:24 51°14.887 2°54.375 335.6 12.1 325 8.1
2008-06-03 06:37:30 51°14.904 2°54.357 335.4 12 325 7.9
2008-06-03 06:37:35 51°14.917 2°54.341 335.4 12 325 7.8
2008-06-03 06:37:40 51°14.931 2°54.326 335.5 11.9 324 7.6
2008-06-03 06:37:45 51°14.944 2°54.31 335.3 11.9 323 7.6
2008-06-03 06:37:50 51°14.957 2°54.294 334.8 11.9 323 7.5
2008-06-03 06:37:55 51°14.97 2°54.279 334.6 11.8 323 5.5
2008-06-03 06:38:00 51°14.983 2°54.263 334.5 11.8 323 7.4
2008-06-03 06:38:05 51°14.996 2°54.247 334.5 11.9 323 7.3
2008-06-03 06:38:10 51°15.009 2°54.232 334.6 11.8 324 7.3
2008-06-03 06:38:15 51°15.022 2°54.216 335.1 11.8 322 7.3
2008-06-03 06:38:20 51°15.035 2°54.199 334.9 11.9 322 7.3
2008-06-03 06:38:25 51°15.048 2°54.183 333.8 11.9 320 7.4
2008-06-03 06:38:30 51°15.061 2°54.166 332.9 11.9 320 7.3
2008-06-03 06:38:35 51°15.073 2°54.149 332.1 12 320 5.5
2008-06-03 06:38:40 51°15.086 2°54.131 331.4 11.9 320 7.6
2008-06-03 06:38:45 51°15.098 2°54.114 331.2 11.9 319 7.7
2008-06-03 06:38:50 51°15.111 2°54.097 330.9 11.9 320 7.7
2008-06-03 06:38:55 51°15.124 2°54.08 331 12 321 7.7
2008-06-03 06:39:00 51°15.137 2°54.064 331.9 12 322 7.8
2008-06-03 06:39:05 51°15.15 2°54.048 332.6 11.9 322 7.8
2008-06-03 06:39:10 51°15.163 2°54.032 333 11.9 323 7.8
2008-06-03 06:39:15 51°15.177 2°54.016 333.4 11.9 323 7.9
2008-06-03 06:39:20 51°15.19 2°54.001 333.6 11.8 325 7.9
2008-06-03 06:39:25 51°15.203 2°53.986 334.7 11.8 324 7.9
2008-06-03 06:39:30 51°15.217 2°53.972 335.5 11.8 326 8
2008-06-03 06:39:35 51°15.231 2°53.957 336.3 11.8 326 8
2008-06-03 06:39:40 51°15.245 2°53.943 336.9 11.8 328 8
2008-06-03 06:39:44 51°15.256 2°53.932 337.9 11.8 328 8.1
2008-06-03 06:39:50 51°15.272 2°53.916 338.4 11.8 328 8.1
2008-06-03 06:39:55 51°15.286 2°53.902 338.8 11.8 328 8.2
2008-06-03 06:40:00 51°15.3 2°53.888 338.8 11.8 328 8.2
2008-06-03 06:40:04 51°15.311 2°53.877 338.9 11.8 328 8.2
2008-06-03 06:40:10 51°15.328 2°53.86 339.2 11.9 328 8.3
2008-06-03 06:40:15 51°15.342 2°53.847 339.6 11.8 329 8.3
2008-06-03 06:40:20 51°15.356 2°53.833 339.8 11.8 329 8.3
2008-06-03 06:40:24 51°15.367 2°53.822 340 11.9 328 8.5
2008-06-03 06:40:30 51°15.384 2°53.805 340 11.8 328 8.6
2008-06-03 06:40:35 51°15.398 2°53.791 339.9 11.8 328 8.7
2008-06-03 06:40:40 51°15.412 2°53.778 339.9 11.9 328 8.6
2008-06-03 06:40:45 51°15.426 2°53.764 339.9 11.8 328 8.8
2008-06-03 06:40:50 51°15.44 2°53.75 339.9 11.9 328 8.7
2008-06-03 06:40:55 51°15.454 2°53.736 340.1 11.8 329 8.9
2008-06-03 06:41:00 51°15.468 2°53.723 340.1 11.8 328 9
2008-06-03 06:41:05 51°15.482 2°53.709 340.2 11.8 328 9
2008-06-03 06:41:10 51°15.496 2°53.695 340.3 11.9 328 9.1
2008-06-03 06:41:15 51°15.51 2°53.681 340.3 11.9 328 9.2
2008-06-03 06:41:19 51°15.521 2°53.67 340.1 11.8 328 8.9
2008-06-03 06:41:25 51°15.538 2°53.654 340.1 11.8 328 9
2008-06-03 06:41:30 51°15.552 2°53.64 339.9 11.8 328 9.1
2008-06-03 06:41:35 51°15.566 2°53.626 339.8 11.9 328 9.1
2008-06-03 06:41:40 51°15.58 2°53.613 340.2 11.9 329 9.3
2008-06-03 06:41:45 51°15.594 2°53.599 340 11.9 329 9.2
2008-06-03 06:41:50 51°15.608 2°53.586 340.2 11.8 329 9.4
2008-06-03 06:41:55 51°15.622 2°53.572 340.3 11.8 329 9.5
2008-06-03 06:42:00 51°15.636 2°53.559 340.3 11.9 329 9.4
2008-06-03 06:42:04 51°15.648 2°53.548 340.3 11.8 329 9.4
2008-06-03 06:42:10 51°15.665 2°53.532 340.5 11.9 329 9.5
2008-06-03 06:42:15 51°15.679 2°53.518 340.4 11.9 329 9.6
2008-06-03 06:42:20 51°15.693 2°53.505 340.3 11.9 329 9.7
2008-06-03 06:42:25 51°15.707 2°53.492 340.3 11.9 330 9.7
2008-06-03 06:42:30 51°15.721 2°53.479 340.4 11.8 330 9.6
2008-06-03 06:42:35 51°15.736 2°53.466 340.7 11.8 330 9.7
2008-06-03 06:42:40 51°15.75 2°53.452 340.7 11.8 330 9.8
2008-06-03 06:42:44 51°15.761 2°53.442 340.6 11.8 329 9.8
2008-06-03 06:42:50 51°15.778 2°53.427 340.3 11.8 331 9.9
2008-06-03 06:42:55 51°15.793 2°53.414 341.4 11.8 331 9.8
2008-06-03 06:43:00 51°15.807 2°53.402 342.3 11.8 332 9.9
2008-06-03 06:43:05 51°15.822 2°53.39 342.9 11.8 332 10
2008-06-03 06:43:10 51°15.837 2°53.378 343.6 11.8 333 9.8
2008-06-03 06:43:15 51°15.851 2°53.366 344.1 11.9 332 9.9
2008-06-03 06:43:20 51°15.866 2°53.354 344.4 11.9 333 10
2008-06-03 06:43:25 51°15.88 2°53.341 344.5 11.9 332 10.1
2008-06-03 06:43:30 51°15.895 2°53.33 344.5 11.8 333 10.1
2008-06-03 06:43:35 51°15.91 2°53.318 344.6 11.9 333 10.1
2008-06-03 06:43:40 51°15.924 2°53.305 344.8 11.9 333 10.1
2008-06-03 06:43:45 51°15.939 2°53.293 344.6 11.9 333 10.1
2008-06-03 06:43:50 51°15.954 2°53.282 344.2 11.8 333 10.1
2008-06-03 06:43:55 51°15.968 2°53.27 344.4 11.8 333 10.1
2008-06-03 06:43:59 51°15.98 2°53.26 344.5 11.8 333 10.2
2008-06-03 06:44:05 51°15.998 2°53.246 344.3 11.9 333 10.2
2008-06-03 06:44:10 51°16.012 2°53.234 344.1 11.8 333 10.2
2008-06-03 06:44:15 51°16.027 2°53.223 344.1 11.8 336 10.3
2008-06-03 06:44:20 51°16.042 2°53.212 345.1 11.8 334 10.3
2008-06-03 06:44:24 51°16.054 2°53.203 345.4 11.7 335 10.3
2008-06-03 06:44:30 51°16.072 2°53.19 345.4 11.8 335 10.3
2008-06-03 06:44:35 51°16.086 2°53.179 345.5 11.8 335 10.4
2008-06-03 06:44:40 51°16.101 2°53.167 345.5 11.8 334 10.4
2008-06-03 06:44:44 51°16.113 2°53.159 345.5 11.8 335 10.4
2008-06-03 06:44:50 51°16.131 2°53.145 345.5 11.8 334 10.4
2008-06-03 06:44:55 51°16.146 2°53.133 345.4 11.8 334 10.4
2008-06-03 06:45:00 51°16.16 2°53.122 345.3 11.8 334 10.4
2008-06-03 06:45:05 51°16.175 2°53.111 345.3 11.8 335 10.4
2008-06-03 06:45:10 51°16.19 2°53.1 345.4 11.8 334 10.4
2008-06-03 06:45:15 51°16.205 2°53.089 345.4 11.8 335 10.4
2008-06-03 06:45:20 51°16.219 2°53.078 345.5 11.8 335 10.4
2008-06-03 06:45:25 51°16.234 2°53.067 345.4 11.8 336 10.5
2008-06-03 06:45:30 51°16.249 2°53.057 345.5 11.7 336 10.5
2008-06-03 06:45:35 51°16.264 2°53.047 345.8 11.7 337 10.4
2008-06-03 06:45:39 51°16.276 2°53.038 346 11.8 336 10.5
2008-06-03 06:45:45 51°16.294 2°53.026 345.8 11.7 336 10.5
2008-06-03 06:45:50 51°16.309 2°53.015 345.4 11.7 335 10.5
2008-06-03 06:45:55 51°16.324 2°53.004 344.8 11.8 336 10.5
2008-06-03 06:46:00 51°16.339 2°52.993 344.5 11.8 335 10.5
2008-06-03 06:46:05 51°16.353 2°52.981 344.3 11.8 334 10.5
2008-06-03 06:46:10 51°16.368 2°52.97 343.4 11.8 333 10.5
2008-06-03 06:46:15 51°16.383 2°52.958 342.4 11.8 333 10.6
2008-06-03 06:46:20 51°16.397 2°52.946 341.8 11.8 333 10.5
2008-06-03 06:46:24 51°16.409 2°52.937 341.6 11.8 335 10.6
2008-06-03 06:46:30 51°16.427 2°52.924 342.4 11.8 335 10.5
2008-06-03 06:46:35 51°16.442 2°52.914 343.3 11.7 337 10.5
2008-06-03 06:46:40 51°16.457 2°52.904 344.7 11.7 337 10.5
2008-06-03 06:46:44 51°16.469 2°52.897 345.7 11.7 339 10.5
2008-06-03 06:46:50 51°16.487 2°52.885 346.6 11.7 339 10.5
2008-06-03 06:46:55 51°16.503 2°52.876 347 11.8 339 10.5
2008-06-03 06:47:00 51°16.518 2°52.867 347.4 11.7 339 10.4
2008-06-03 06:47:04 51°16.53 2°52.86 347.5 11.8 340 10.5
2008-06-03 06:47:10 51°16.548 2°52.85 347.7 11.7 340 10.4
2008-06-03 06:47:15 51°16.564 2°52.841 347.6 11.7 341 10.5
2008-06-03 06:47:20 51°16.579 2°52.833 347.7 11.7 341 10.4
2008-06-03 06:47:25 51°16.594 2°52.824 348.1 11.7 340 10.3
2008-06-03 06:47:30 51°16.609 2°52.815 348.1 11.7 340 10.3
2008-06-03 06:47:35 51°16.625 2°52.806 348 11.6 340 10.2
2008-06-03 06:47:40 51°16.64 2°52.797 347.6 11.7 340 10
2008-06-03 06:47:45 51°16.655 2°52.789 347.5 11.6 340 9.9
2008-06-03 06:47:50 51°16.67 2°52.78 347.4 11.6 340 9.9
2008-06-03 06:47:55 51°16.685 2°52.771 347.4 11.6 340 9.8
2008-06-03 06:47:59 51°16.697 2°52.764 347.4 11.6 340 9.6
2008-06-03 06:48:05 51°16.715 2°52.753 347.5 11.6 339 9.6
2008-06-03 06:48:10 51°16.73 2°52.745 347.1 11.5 340 9.4
2008-06-03 06:48:15 51°16.745 2°52.736 347.1 11.5 340 9.2
2008-06-03 06:48:20 51°16.759 2°52.726 347.3 11.4 338 8.9
2008-06-03 06:48:25 51°16.774 2°52.716 346.7 11.4 338 8.4
2008-06-03 06:48:30 51°16.788 2°52.706 345.6 11.3 337 8.6
2008-06-03 06:48:35 51°16.803 2°52.696 344.9 11.3 336 8.6
2008-06-03 06:48:40 51°16.817 2°52.686 344.1 11.3 335 8.6
2008-06-03 06:48:44 51°16.829 2°52.677 343.5 11.3 335 8.4
2008-06-03 06:48:50 51°16.846 2°52.664 343.2 11.3 335 8.5
2008-06-03 06:48:55 51°16.86 2°52.654 342.9 11.3 335 8.3
2008-06-03 06:49:00 51°16.874 2°52.643 342.6 11.3 335 8.3
2008-06-03 06:49:05 51°16.888 2°52.633 342.9 11.2 335 8.3
2008-06-03 06:49:10 51°16.902 2°52.622 343 11.3 335 8.6
2008-06-03 06:49:15 51°16.917 2°52.612 343 11.3 336 8.6
2008-06-03 06:49:20 51°16.931 2°52.601 343.6 11.3 336 8.5
2008-06-03 06:49:24 51°16.942 2°52.593 343.8 11.3 336 8.6
2008-06-03 06:49:30 51°16.96 2°52.581 343.9 11.3 336 8.8
2008-06-03 06:49:35 51°16.974 2°52.571 343.9 11.3 336 8.7
2008-06-03 06:49:40 51°16.988 2°52.56 343.9 11.3 336 8.7
2008-06-03 06:49:45 51°17.003 2°52.55 344 11.3 337 8.5
2008-06-03 06:49:50 51°17.017 2°52.541 344.3 11.2 337 8.3
2008-06-03 06:49:55 51°17.031 2°52.531 344.6 11.2 337 8.5
2008-06-03 06:50:00 51°17.046 2°52.52 344.7 11.2 335 8.5
2008-06-03 06:50:05 51°17.06 2°52.51 343.9 11.2 336 8.4
2008-06-03 06:50:10 51°17.074 2°52.5 343.9 11.2 335 8.5
2008-06-03 06:50:15 51°17.088 2°52.49 343.6 11.3 336 8.6
2008-06-03 06:50:20 51°17.102 2°52.479 343.5 11.3 335 8.6
2008-06-03 06:50:25 51°17.117 2°52.469 343.4 11.2 336 8.5
2008-06-03 06:50:30 51°17.131 2°52.459 343.8 11.2 336 8.8
2008-06-03 06:50:35 51°17.145 2°52.45 344.1 11.2 337 8.7
2008-06-03 06:50:39 51°17.157 2°52.442 344.1 11.3 338 8.8
2008-06-03 06:50:44 51°17.172 2°52.435 345.4 11.2 342 8.9
2008-06-03 06:50:50 51°17.19 2°52.425 347.9 11.2 342 8.8
2008-06-03 06:50:55 51°17.205 2°52.419 349.4 11.2 345 8.8
2008-06-03 06:51:00 51°17.219 2°52.413 351.1 11.1 345 8.8
2008-06-03 06:51:04 51°17.232 2°52.408 352.4 11.1 346 8.8
2008-06-03 06:51:10 51°17.249 2°52.402 352.9 11.1 348 8.9
2008-06-03 06:51:15 51°17.265 2°52.397 353.6 11.1 349 9.1
2008-06-03 06:51:20 51°17.28 2°52.394 355.2 11 352 8.9
2008-06-03 06:51:24 51°17.292 2°52.391 357.3 11.1 351 9.1
2008-06-03 06:51:30 51°17.31 2°52.389 358.6 11 354 9.2
2008-06-03 06:51:35 51°17.325 2°52.386 -999 11 354 9.2
2008-06-03 06:51:40 51°17.34 2°52.384 0.8 11 356 9.3
2008-06-03 06:51:45 51°17.356 2°52.382 1.5 11 356 9.1
2008-06-03 06:51:50 51°17.371 2°52.381 2.1 11 357 9.2
2008-06-03 06:51:55 51°17.386 2°52.379 2.7 11 356 9.4
2008-06-03 06:52:00 51°17.401 2°52.378 2.8 11 356 9.3
2008-06-03 06:52:04 51°17.413 2°52.376 2.6 10.9 356 9.1
2008-06-03 06:52:10 51°17.431 2°52.374 2.2 10.9 356 9.2
2008-06-03 06:52:15 51°17.447 2°52.373 2.2 10.9 357 9.3
2008-06-03 06:52:20 51°17.462 2°52.371 2.6 10.9 356 9.3
2008-06-03 06:52:25 51°17.477 2°52.37 2.8 11 357 9.3
2008-06-03 06:52:30 51°17.492 2°52.369 3 10.9 356 9.2
2008-06-03 06:52:35 51°17.507 2°52.367 2.8 10.9 357 9.4
2008-06-03 06:52:40 51°17.523 2°52.366 2.8 11 356 9.2
2008-06-03 06:52:45 51°17.538 2°52.364 2.6 11 357 9.3
2008-06-03 06:52:50 51°17.553 2°52.363 2.6 11 357 9.4
2008-06-03 06:52:55 51°17.568 2°52.362 2.8 10.9 357 9.2
2008-06-03 06:53:00 51°17.583 2°52.36 3.2 10.9 357 9.2
2008-06-03 06:53:04 51°17.595 2°52.359 3.2 11 357 9.3
2008-06-03 06:53:10 51°17.614 2°52.357 2.8 11 356 9.1
2008-06-03 06:53:15 51°17.629 2°52.356 2.5 10.9 357 9.2
2008-06-03 06:53:20 51°17.644 2°52.354 2.5 10.9 356 9.3
2008-06-03 06:53:24 51°17.656 2°52.353 2.5 10.9 357 9.2
2008-06-03 06:53:30 51°17.674 2°52.352 2.8 10.9 357 9.2
2008-06-03 06:53:35 51°17.689 2°52.351 3.1 10.9 358 9.2
2008-06-03 06:53:40 51°17.704 2°52.35 3.4 10.9 357 9.2
2008-06-03 06:53:44 51°17.717 2°52.349 3.5 10.9 358 9.1
2008-06-03 06:53:50 51°17.735 2°52.348 3.7 10.9 357 9
2008-06-03 06:53:55 51°17.75 2°52.347 3.6 10.9 358 9.2
2008-06-03 06:54:00 51°17.765 2°52.346 3.5 10.9 358 9.2
2008-06-03 06:54:05 51°17.78 2°52.346 3.4 10.9 -999 9.3
2008-06-03 06:54:10 51°17.795 2°52.349 4.7 10.8 6 9.2
2008-06-03 06:54:15 51°17.809 2°52.352 8.6 10.8 7 9.2
2008-06-03 06:54:20 51°17.824 2°52.356 11.2 10.7 11 9.2
2008-06-03 06:54:25 51°17.839 2°52.361 13.7 10.7 11 9.3
2008-06-03 06:54:30 51°17.853 2°52.367 15.4 10.7 13 9.1
2008-06-03 06:54:35 51°17.868 2°52.373 16.8 10.7 14 9.4
2008-06-03 06:54:40 51°17.882 2°52.379 18.1 10.8 15 9.3
2008-06-03 06:54:45 51°17.896 2°52.386 19 10.7 16 9.4
2008-06-03 06:54:50 51°17.91 2°52.393 19.4 10.7 17 9.4
2008-06-03 06:54:55 51°17.924 2°52.402 20.6 10.7 23 9.4
2008-06-03 06:54:59 51°17.935 2°52.409 23.9 10.7 22 9.4
2008-06-03 06:55:05 51°17.951 2°52.422 25.9 10.7 26 9.4
2008-06-03 06:55:10 51°17.964 2°52.433 27.8 10.7 27 9.5
2008-06-03 06:55:15 51°17.976 2°52.445 29.3 10.7 31 9.4
2008-06-03 06:55:20 51°17.989 2°52.457 31.1 10.6 30 9.4
2008-06-03 06:55:24 51°17.999 2°52.468 32.5 10.7 35 9.4
2008-06-03 06:55:30 51°18.013 2°52.484 34.8 10.6 35 9.4
2008-06-03 06:55:35 51°18.025 2°52.499 36.3 10.6 38 9.4
2008-06-03 06:55:40 51°18.037 2°52.514 37.7 10.7 37 9.4
2008-06-03 06:55:44 51°18.046 2°52.526 38.5 10.7 39 9.4
2008-06-03 06:55:50 51°18.06 2°52.544 39.4 10.7 39 9.6
2008-06-03 06:55:55 51°18.071 2°52.559 39.7 10.7 39 9.5
2008-06-03 06:56:00 51°18.083 2°52.574 39.7 10.7 39 9.6
2008-06-03 06:56:04 51°18.092 2°52.586 39.8 10.7 40 9.6
2008-06-03 06:56:10 51°18.106 2°52.604 40.2 10.7 39 9.6
2008-06-03 06:56:15 51°18.117 2°52.619 40.2 10.7 39 9.7
2008-06-03 06:56:20 51°18.129 2°52.634 39.6 10.6 40 9.7
2008-06-03 06:56:25 51°18.14 2°52.65 39.4 10.7 42 9.6
2008-06-03 06:56:30 51°18.15 2°52.667 41.9 10.7 47 9.7
2008-06-03 06:56:35 51°18.16 2°52.685 44.9 10.7 47 9.6
2008-06-03 06:56:40 51°18.169 2°52.703 46.6 10.7 50 9.6
2008-06-03 06:56:45 51°18.178 2°52.722 48.6 10.7 51 9.6
2008-06-03 06:56:50 51°18.187 2°52.741 50.3 10.8 53 9.6
2008-06-03 06:56:55 51°18.196 2°52.76 51 10.8 53 9.8
2008-06-03 06:57:00 51°18.205 2°52.779 51.4 10.8 54 9.7
2008-06-03 06:57:05 51°18.214 2°52.798 52 10.8 54 9.7
2008-06-03 06:57:10 51°18.223 2°52.818 52.1 10.8 55 9.8
2008-06-03 06:57:15 51°18.231 2°52.838 52.9 10.8 56 9.8
2008-06-03 06:57:19 51°18.238 2°52.854 54 10.8 56 9.7
2008-06-03 06:57:25 51°18.247 2°52.878 54.5 10.9 58 9.8
2008-06-03 06:57:30 51°18.255 2°52.899 55.4 10.9 59 9.8
2008-06-03 06:57:35 51°18.263 2°52.92 56.5 10.9 60 9.8
2008-06-03 06:57:40 51°18.27 2°52.941 57.6 10.9 60 9.8
2008-06-03 06:57:44 51°18.276 2°52.957 57.9 10.8 60 9.9
2008-06-03 06:57:50 51°18.286 2°52.982 57.7 10.9 59 9.9
2008-06-03 06:57:55 51°18.294 2°53.002 56.9 10.8 58 9.8
2008-06-03 06:58:00 51°18.302 2°53.022 56 10.8 58 9.9
2008-06-03 06:58:04 51°18.309 2°53.038 55.6 10.7 57 9.9
2008-06-03 06:58:10 51°18.318 2°53.062 55.1 10.7 57 9.9
2008-06-03 06:58:15 51°18.326 2°53.081 54.9 10.7 56 10
2008-06-03 06:58:20 51°18.334 2°53.101 54.6 10.7 57 9.8
2008-06-03 06:58:25 51°18.342 2°53.121 54.4 10.7 57 9.9
2008-06-03 06:58:30 51°18.351 2°53.141 54.4 10.8 57 9.9
2008-06-03 06:58:35 51°18.359 2°53.161 54.6 10.7 57 9.9
2008-06-03 06:58:40 51°18.367 2°53.181 54.7 10.7 57 9.9
2008-06-03 06:58:44 51°18.373 2°53.196 54.8 10.8 56 10
2008-06-03 06:58:50 51°18.383 2°53.22 54.3 10.8 58 10
2008-06-03 06:58:55 51°18.391 2°53.241 54.8 10.8 57 10
2008-06-03 06:59:00 51°18.399 2°53.261 55.1 10.8 57 10
2008-06-03 06:59:05 51°18.407 2°53.281 54.9 10.8 57 9.9
2008-06-03 06:59:10 51°18.415 2°53.301 54.9 10.8 58 10
2008-06-03 06:59:15 51°18.423 2°53.322 55.4 10.8 59 9.9
2008-06-03 06:59:20 51°18.43 2°53.342 56.2 10.8 60 10
2008-06-03 06:59:25 51°18.438 2°53.363 56.9 10.8 60 10
2008-06-03 06:59:30 51°18.446 2°53.384 57.4 10.8 60 10
2008-06-03 06:59:35 51°18.453 2°53.405 57.3 10.8 60 10
2008-06-03 06:59:40 51°18.461 2°53.426 58 10.9 61 10
2008-06-03 06:59:45 51°18.468 2°53.447 58.3 10.9 61 10
2008-06-03 06:59:50 51°18.475 2°53.468 58.3 10.9 61 10.1
2008-06-03 06:59:55 51°18.483 2°53.489 58.2 10.9 60 10.1
2008-06-03 07:00:00 51°18.49 2°53.509 57.9 10.8 59 10.1
2008-06-03 07:00:04 51°18.496 2°53.526 56.9 10.9 60 10
2008-06-03 07:00:10 51°18.506 2°53.55 57.1 10.9 58 10
2008-06-03 07:00:15 51°18.513 2°53.571 56.5 10.8 61 10
2008-06-03 07:00:20 51°18.521 2°53.592 56.9 10.9 58 10.1
2008-06-03 07:00:24 51°18.527 2°53.608 56.8 10.9 60 10.1
2008-06-03 07:00:30 51°18.536 2°53.633 57 10.8 60 10.1
2008-06-03 07:00:35 51°18.543 2°53.654 57.9 10.8 60 10
2008-06-03 07:00:40 51°18.551 2°53.675 57 10.9 61 10
2008-06-03 07:00:45 51°18.558 2°53.695 57.2 10.8 60 10
2008-06-03 07:00:50 51°18.565 2°53.716 57.4 10.8 61 10
2008-06-03 07:00:55 51°18.573 2°53.737 57.6 10.8 59 10
2008-06-03 07:01:00 51°18.58 2°53.758 57 10.8 60 10.1
2008-06-03 07:01:05 51°18.588 2°53.778 57.2 10.8 59 10.1
2008-06-03 07:01:10 51°18.596 2°53.799 57.1 10.9 60 10.1
2008-06-03 07:01:15 51°18.604 2°53.819 56.6 10.8 59 10.1
2008-06-03 07:01:20 51°18.611 2°53.84 56.2 10.8 60 10.2
2008-06-03 07:01:25 51°18.619 2°53.861 56.3 10.9 60 10.1
2008-06-03 07:01:30 51°18.626 2°53.881 56.7 10.9 60 10.1
2008-06-03 07:01:35 51°18.633 2°53.902 56.7 10.8 61 10.2
2008-06-03 07:01:40 51°18.64 2°53.924 57.8 10.8 63 10.1
2008-06-03 07:01:45 51°18.648 2°53.945 58.9 10.9 62 10.1
2008-06-03 07:01:50 51°18.654 2°53.966 58.8 10.9 63 10.1
2008-06-03 07:01:55 51°18.661 2°53.988 59.3 10.9 64 10.1
2008-06-03 07:02:00 51°18.668 2°54.009 60.3 10.8 63 10.2
2008-06-03 07:02:05 51°18.674 2°54.031 60.1 10.9 65 10.2
2008-06-03 07:02:10 51°18.681 2°54.053 60.5 10.8 64 10.1
2008-06-03 07:02:15 51°18.688 2°54.074 60.3 10.8 64 10.2
2008-06-03 07:02:20 51°18.694 2°54.095 60.2 10.9 63 10.1
2008-06-03 07:02:24 51°18.7 2°54.113 60.3 10.9 63 10.1
2008-06-03 07:02:30 51°18.708 2°54.138 60.2 10.8 63 10.1
2008-06-03 07:02:35 51°18.715 2°54.16 60.1 10.9 63 10.2
2008-06-03 07:02:40 51°18.722 2°54.181 59.6 10.9 62 10.1
2008-06-03 07:02:44 51°18.727 2°54.198 59.3 10.9 63 10.2
2008-06-03 07:02:50 51°18.736 2°54.224 59.5 10.9 62 10.1
2008-06-03 07:02:55 51°18.743 2°54.245 59.5 10.9 62 10.2
2008-06-03 07:03:00 51°18.75 2°54.266 59.2 10.9 61 10.1
2008-06-03 07:03:04 51°18.755 2°54.283 58.5 10.9 63 10.1
2008-06-03 07:03:10 51°18.764 2°54.309 58.9 10.9 63 10.1
2008-06-03 07:03:15 51°18.771 2°54.33 59.3 10.9 63 10.2
2008-06-03 07:03:20 51°18.777 2°54.352 59.2 10.8 64 10.2
2008-06-03 07:03:25 51°18.784 2°54.373 59.8 10.9 61 10.2
2008-06-03 07:03:30 51°18.791 2°54.395 59.1 10.9 63 10.2
2008-06-03 07:03:35 51°18.798 2°54.416 59.4 10.8 61 10.1
2008-06-03 07:03:40 51°18.805 2°54.437 58.7 10.9 62 10.2
2008-06-03 07:03:45 51°18.812 2°54.458 58.7 10.9 62 10.1
2008-06-03 07:03:50 51°18.819 2°54.479 58.8 10.9 63 10.1
2008-06-03 07:03:55 51°18.826 2°54.501 58.9 10.9 62 10.1
2008-06-03 07:04:00 51°18.833 2°54.522 58.8 10.9 63 10.1
2008-06-03 07:04:05 51°18.84 2°54.544 58.8 10.8 63 10.2
2008-06-03 07:04:10 51°18.847 2°54.565 59.2 10.9 64 10.3
2008-06-03 07:04:15 51°18.854 2°54.587 59.5 10.9 63 10.2
2008-06-03 07:04:20 51°18.861 2°54.608 59.2 10.9 63 10.4
2008-06-03 07:04:25 51°18.867 2°54.63 59.4 10.9 63 10.2
2008-06-03 07:04:30 51°18.874 2°54.651 59.5 10.9 62 10.2
2008-06-03 07:04:35 51°18.882 2°54.673 59 10.9 63 10.3
2008-06-03 07:04:40 51°18.889 2°54.694 59 11 62 10.2
2008-06-03 07:04:44 51°18.894 2°54.711 58.7 10.9 62 10.2
2008-06-03 07:04:50 51°18.903 2°54.737 58.2 11 62 10.3
2008-06-03 07:04:55 51°18.91 2°54.758 58.5 11 62 10.3
2008-06-03 07:05:00 51°18.917 2°54.78 58.6 10.9 63 10.1
2008-06-03 07:05:05 51°18.924 2°54.801 58.8 11 61 10.1
2008-06-03 07:05:10 51°18.931 2°54.822 58.5 10.9 62 10.2
2008-06-03 07:05:15 51°18.938 2°54.844 58.4 11 62 10.1
2008-06-03 07:05:20 51°18.946 2°54.865 58.3 10.9 62 10
2008-06-03 07:05:24 51°18.951 2°54.882 58.1 10.9 62 10
2008-06-03 07:05:30 51°18.96 2°54.907 58.3 10.9 61 10.1
2008-06-03 07:05:35 51°18.968 2°54.928 57.9 10.9 60 10.2
2008-06-03 07:05:40 51°18.975 2°54.949 56.9 10.9 59 10.2
2008-06-03 07:05:45 51°18.984 2°54.97 55.8 10.9 58 10
2008-06-03 07:05:50 51°18.991 2°54.991 55.1 10.9 60 10
2008-06-03 07:05:55 51°18.999 2°55.012 55.5 10.9 60 10
2008-06-03 07:06:00 51°19.006 2°55.033 56.6 11 62 10
2008-06-03 07:06:05 51°19.014 2°55.054 57.4 11 60 10
2008-06-03 07:06:10 51°19.021 2°55.076 57.5 11 62 9.9
2008-06-03 07:06:15 51°19.028 2°55.097 58.1 11 61 9.9
2008-06-03 07:06:20 51°19.035 2°55.118 58.2 11 61 9.9
2008-06-03 07:06:25 51°19.043 2°55.14 57.9 11 62 10
2008-06-03 07:06:30 51°19.05 2°55.161 58 11 62 10
2008-06-03 07:06:35 51°19.057 2°55.183 58.1 11.1 62 10
2008-06-03 07:06:40 51°19.064 2°55.205 58.7 11 63 10.1
2008-06-03 07:06:45 51°19.071 2°55.226 58.7 11 62 10.1
2008-06-03 07:06:50 51°19.079 2°55.248 58.5 11 62 10.1
2008-06-03 07:06:55 51°19.086 2°55.269 58.4 11 62 10.2
2008-06-03 07:07:00 51°19.093 2°55.291 58.3 11 62 10.2
2008-06-03 07:07:04 51°19.099 2°55.308 58.3 11 62 10.1
2008-06-03 07:07:10 51°19.108 2°55.334 58.3 11 60 10.1
2008-06-03 07:07:15 51°19.115 2°55.355 57.2 11.1 61 10.1
2008-06-03 07:07:20 51°19.123 2°55.376 57 11.1 60 10.2
2008-06-03 07:07:25 51°19.13 2°55.397 56.7 11 61 10.1
2008-06-03 07:07:30 51°19.137 2°55.419 57.2 11.1 63 10.1
2008-06-03 07:07:35 51°19.144 2°55.442 58.7 11.1 64 10.1
2008-06-03 07:07:40 51°19.151 2°55.464 59.8 11.1 64 10.1
2008-06-03 07:07:45 51°19.158 2°55.486 60.1 11 63 10.1
2008-06-03 07:07:50 51°19.165 2°55.508 59.9 11 63 10.2
2008-06-03 07:07:55 51°19.172 2°55.529 59.1 11 61 10.2
2008-06-03 07:08:00 51°19.179 2°55.551 58 11 62 10.1
2008-06-03 07:08:05 51°19.187 2°55.572 57.9 11 62 10.1
2008-06-03 07:08:10 51°19.194 2°55.593 57.8 11 61 10.2
2008-06-03 07:08:15 51°19.202 2°55.615 57.4 11 61 10.2
2008-06-03 07:08:20 51°19.209 2°55.636 57.2 11 62 10.2
2008-06-03 07:08:25 51°19.216 2°55.658 57.8 11 61 10.1
2008-06-03 07:08:30 51°19.223 2°55.68 57.9 11 62 10.2
2008-06-03 07:08:35 51°19.231 2°55.701 58 11 62 10.2
2008-06-03 07:08:40 51°19.238 2°55.723 58.3 11 62 10
2008-06-03 07:08:45 51°19.245 2°55.744 58.2 11 63 10
2008-06-03 07:08:50 51°19.252 2°55.766 58.3 10.9 61 10
2008-06-03 07:08:55 51°19.259 2°55.788 57.9 11 62 10
2008-06-03 07:09:00 51°19.267 2°55.809 57.8 11 61 10
2008-06-03 07:09:04 51°19.273 2°55.826 57.7 11 62 10
2008-06-03 07:09:10 51°19.281 2°55.852 58 11 62 10
2008-06-03 07:09:15 51°19.288 2°55.874 58.2 11 63 10
2008-06-03 07:09:20 51°19.295 2°55.895 58.2 11 63 10
2008-06-03 07:09:24 51°19.301 2°55.913 58.7 11 62 10
2008-06-03 07:09:30 51°19.31 2°55.939 58.3 11 63 10
2008-06-03 07:09:35 51°19.317 2°55.96 58.4 11 63 10
2008-06-03 07:09:40 51°19.323 2°55.982 58.8 11 63 10
2008-06-03 07:09:44 51°19.329 2°55.999 59.3 11 63 10
2008-06-03 07:09:50 51°19.336 2°56.025 59 11 64 10
2008-06-03 07:09:55 51°19.343 2°56.047 59.3 11 63 10
2008-06-03 07:10:00 51°19.35 2°56.069 59.2 11 64 9.9
2008-06-03 07:10:05 51°19.356 2°56.091 59.3 11 64 10
2008-06-03 07:10:10 51°19.363 2°56.112 59.7 11 63 9.9
2008-06-03 07:10:15 51°19.37 2°56.134 59.2 11 63 10
2008-06-03 07:10:20 51°19.377 2°56.156 58.9 11 64 10
2008-06-03 07:10:25 51°19.384 2°56.178 59.1 11 63 10
2008-06-03 07:10:30 51°19.39 2°56.2 59.5 11 66 10
2008-06-03 07:10:35 51°19.396 2°56.223 60.9 11 67 10
2008-06-03 07:10:40 51°19.402 2°56.245 62.4 11 67 10.1
2008-06-03 07:10:45 51°19.407 2°56.268 62.9 11.1 69 10.1
2008-06-03 07:10:50 51°19.413 2°56.291 63.6 11.1 68 10
2008-06-03 07:10:55 51°19.418 2°56.313 63.7 11.1 69 10
2008-06-03 07:11:00 51°19.424 2°56.337 63.7 11.1 70 10.1
2008-06-03 07:11:05 51°19.429 2°56.36 64.5 11.1 71 9.9
2008-06-03 07:11:10 51°19.434 2°56.383 65.8 11.1 72 10
2008-06-03 07:11:15 51°19.439 2°56.406 66.3 11.1 71 10
2008-06-03 07:11:20 51°19.443 2°56.43 66.5 11.1 73 9.9
2008-06-03 07:11:25 51°19.448 2°56.453 67.1 11.1 72 10
2008-06-03 07:11:30 51°19.453 2°56.477 67.3 11.1 73 10
2008-06-03 07:11:35 51°19.457 2°56.5 67.4 11.1 73 10.1
2008-06-03 07:11:40 51°19.462 2°56.524 67.7 11.1 73 10
2008-06-03 07:11:45 51°19.466 2°56.547 67.6 11.1 72 10
2008-06-03 07:11:50 51°19.471 2°56.57 67.4 11.1 72 10
2008-06-03 07:11:55 51°19.476 2°56.594 67 11.1 72 10
2008-06-03 07:12:00 51°19.481 2°56.617 67 11.1 72 10
2008-06-03 07:12:04 51°19.484 2°56.636 67.2 11.1 72 9.9
2008-06-03 07:12:10 51°19.49 2°56.664 67 11.1 71 10
2008-06-03 07:12:15 51°19.495 2°56.687 66.6 11.1 71 9.9
2008-06-03 07:12:20 51°19.5 2°56.71 66.4 11.1 70 9.9
2008-06-03 07:12:25 51°19.506 2°56.733 65.5 11.1 69 9.9
2008-06-03 07:12:30 51°19.511 2°56.755 64.5 11 69 10
2008-06-03 07:12:35 51°19.517 2°56.778 64 11 68 10
2008-06-03 07:12:40 51°19.523 2°56.8 63.5 11 67 10
2008-06-03 07:12:45 51°19.529 2°56.823 62.7 11 67 9.9
2008-06-03 07:12:50 51°19.535 2°56.845 62.5 11 67 10
2008-06-03 07:12:55 51°19.54 2°56.868 62.7 11 68 9.8
2008-06-03 07:13:00 51°19.546 2°56.89 62.5 11 67 9.9
2008-06-03 07:13:05 51°19.552 2°56.913 62.7 11 68 9.8
2008-06-03 07:13:10 51°19.558 2°56.935 62.6 11 66 9.9
2008-06-03 07:13:15 51°19.564 2°56.957 62.3 11 68 9.9
2008-06-03 07:13:19 51°19.569 2°56.975 62.4 11 67 9.9
2008-06-03 07:13:25 51°19.576 2°57.002 62.7 11 69 9.8
2008-06-03 07:13:30 51°19.581 2°57.025 63 11 67 9.8
2008-06-03 07:13:35 51°19.587 2°57.047 62.7 10.9 67 9.7
2008-06-03 07:13:40 51°19.593 2°57.069 62.4 10.9 67 9.9
2008-06-03 07:13:44 51°19.598 2°57.087 62.5 11 68 9.9
2008-06-03 07:13:50 51°19.604 2°57.114 62.5 11 70 9.8
2008-06-03 07:13:55 51°19.61 2°57.136 63.7 11 69 9.8
2008-06-03 07:14:00 51°19.615 2°57.159 64.2 11 71 9.8
2008-06-03 07:14:04 51°19.619 2°57.178 65.2 11.1 71 9.9
2008-06-03 07:14:10 51°19.625 2°57.206 65.7 11.1 72 9.8
2008-06-03 07:14:15 51°19.629 2°57.229 66.4 11.1 72 9.8
2008-06-03 07:14:20 51°19.634 2°57.252 66.9 11 71 9.7
2008-06-03 07:14:25 51°19.638 2°57.276 66.8 11 73 9.8
2008-06-03 07:14:30 51°19.643 2°57.299 67 11 72 9.8
2008-06-03 07:14:35 51°19.648 2°57.322 67 11.1 71 9.8
2008-06-03 07:14:40 51°19.653 2°57.345 66.7 11.1 72 9.8
2008-06-03 07:14:45 51°19.658 2°57.369 66.5 11 71 9.8
2008-06-03 07:14:50 51°19.662 2°57.392 66.5 11.1 73 9.8
2008-06-03 07:14:55 51°19.667 2°57.416 67.5 11.1 74 9.8
2008-06-03 07:15:00 51°19.67 2°57.44 68.2 11.1 75 9.8
2008-06-03 07:15:05 51°19.674 2°57.464 69.1 11.1 75 9.8
2008-06-03 07:15:10 51°19.678 2°57.487 69.7 11.1 76 9.7
2008-06-03 07:15:15 51°19.682 2°57.511 70.4 11.1 75 9.8
2008-06-03 07:15:20 51°19.686 2°57.535 71 11.1 75 9.7
2008-06-03 07:15:25 51°19.69 2°57.559 70.3 11.1 74 9.6
2008-06-03 07:15:30 51°19.694 2°57.582 69.3 11.1 75 9.7
2008-06-03 07:15:35 51°19.699 2°57.606 68.7 11.1 71 9.9
2008-06-03 07:15:40 51°19.704 2°57.629 67.5 11.1 72 9.7
2008-06-03 07:15:45 51°19.708 2°57.652 66.8 11.1 72 9.7
2008-06-03 07:15:50 51°19.713 2°57.676 67.3 11.1 73 9.7
2008-06-03 07:15:55 51°19.717 2°57.699 67.8 11.1 72 9.7
2008-06-03 07:16:00 51°19.722 2°57.723 67.8 11.1 72 9.7
2008-06-03 07:16:04 51°19.726 2°57.741 67.1 11 71 9.6
2008-06-03 07:16:10 51°19.732 2°57.769 66.7 11.1 72 9.6
2008-06-03 07:16:15 51°19.737 2°57.792 66.7 11 71 9.6
2008-06-03 07:16:20 51°19.742 2°57.815 66.3 11 72 9.6
2008-06-03 07:16:24 51°19.746 2°57.834 66.2 11 71 9.5
2008-06-03 07:16:30 51°19.752 2°57.862 66.5 11 72 9.5
2008-06-03 07:16:35 51°19.756 2°57.885 66.6 11 72 9.6
2008-06-03 07:16:40 51°19.761 2°57.908 66.6 11 72 9.6
2008-06-03 07:16:45 51°19.766 2°57.931 66.8 11 71 9.5
2008-06-03 07:16:50 51°19.771 2°57.954 66.4 11 72 9.5
2008-06-03 07:16:55 51°19.776 2°57.977 66.6 11 71 9.5
2008-06-03 07:17:00 51°19.78 2°58 66.4 10.9 72 9.5
2008-06-03 07:17:05 51°19.785 2°58.023 66.2 10.9 72 9.4
2008-06-03 07:17:10 51°19.79 2°58.046 66.7 10.9 71 9.5
2008-06-03 07:17:15 51°19.795 2°58.069 66.4 10.9 71 9.6
2008-06-03 07:17:20 51°19.8 2°58.092 66.1 11 71 9.5
2008-06-03 07:17:25 51°19.804 2°58.115 66.3 10.9 72 9.5
2008-06-03 07:17:30 51°19.809 2°58.138 66.4 10.9 72 9.4
2008-06-03 07:17:35 51°19.813 2°58.161 66.4 10.9 73 9.5
2008-06-03 07:17:40 51°19.818 2°58.184 67.1 10.8 72 9.5
2008-06-03 07:17:45 51°19.823 2°58.207 66.6 10.8 73 9.4
2008-06-03 07:17:50 51°19.827 2°58.23 67 10.9 72 9.5
2008-06-03 07:17:55 51°19.832 2°58.253 66.7 10.8 72 9.4
2008-06-03 07:18:00 51°19.836 2°58.276 66.5 10.8 72 9.5
2008-06-03 07:18:05 51°19.841 2°58.299 66.9 10.9 73 9.4
2008-06-03 07:18:10 51°19.846 2°58.321 66.8 10.8 72 9.4
2008-06-03 07:18:15 51°19.85 2°58.344 66.6 10.8 74 9.3
2008-06-03 07:18:20 51°19.855 2°58.367 67 10.9 72 9.3
2008-06-03 07:18:25 51°19.859 2°58.39 67.1 10.8 72 9.3
2008-06-03 07:18:30 51°19.864 2°58.413 66.5 10.8 73 9.3
2008-06-03 07:18:35 51°19.868 2°58.436 66.9 10.8 73 9.3
2008-06-03 07:18:40 51°19.873 2°58.458 66.7 10.8 72 9.2
2008-06-03 07:18:44 51°19.876 2°58.477 66.8 10.8 73 9.2
2008-06-03 07:18:50 51°19.882 2°58.504 67 10.8 72 9.2
2008-06-03 07:18:55 51°19.887 2°58.527 66.5 10.8 72 9.2
2008-06-03 07:19:00 51°19.891 2°58.549 66.5 10.8 72 9.2
2008-06-03 07:19:05 51°19.896 2°58.572 66.7 10.8 72 9.3
2008-06-03 07:19:10 51°19.901 2°58.595 66.7 10.7 72 9.3
2008-06-03 07:19:15 51°19.905 2°58.617 66.3 10.8 73 9.3
2008-06-03 07:19:20 51°19.91 2°58.64 67 10.9 72 9.2
2008-06-03 07:19:25 51°19.914 2°58.663 67.3 10.8 72 9.2
2008-06-03 07:19:30 51°19.919 2°58.686 66.7 10.7 73 9.2
2008-06-03 07:19:35 51°19.922 2°58.709 67.3 10.9 75 9.2
2008-06-03 07:19:40 51°19.926 2°58.732 69 10.8 74 9.1
2008-06-03 07:19:45 51°19.929 2°58.756 69.1 10.8 77 9.1
2008-06-03 07:19:50 51°19.933 2°58.779 70.2 10.8 76 9.1
2008-06-03 07:19:55 51°19.937 2°58.803 70.9 10.9 77 9.1
2008-06-03 07:19:59 51°19.94 2°58.821 70.6 10.8 76 9.1
2008-06-03 07:20:05 51°19.943 2°58.849 70.8 10.8 78 9.1
2008-06-03 07:20:10 51°19.947 2°58.873 71.5 10.9 75 9.1
2008-06-03 07:20:15 51°19.951 2°58.896 70.7 10.9 76 9
2008-06-03 07:20:20 51°19.955 2°58.919 70.2 10.8 76 8.9
2008-06-03 07:20:25 51°19.958 2°58.942 70.3 10.8 76 9
2008-06-03 07:20:30 51°19.962 2°58.966 70.5 11 75 8.9
2008-06-03 07:20:35 51°19.966 2°58.989 70.4 10.8 75 8.9
2008-06-03 07:20:40 51°19.97 2°59.012 69.6 10.8 76 8.9
2008-06-03 07:20:44 51°19.974 2°59.031 69.9 10.9 74 8.9
2008-06-03 07:20:50 51°19.978 2°59.059 69.6 10.9 74 8.9
2008-06-03 07:20:55 51°19.982 2°59.082 69.3 10.8 74 8.9
2008-06-03 07:21:00 51°19.987 2°59.105 69.2 10.8 73 8.9
2008-06-03 07:21:05 51°19.991 2°59.128 68.9 11 74 8.8
2008-06-03 07:21:10 51°19.996 2°59.151 68.4 10.9 71 8.8
2008-06-03 07:21:15 51°20 2°59.174 67.4 10.8 73 8.9
2008-06-03 07:21:20 51°20.005 2°59.196 67.5 10.9 71 8.8
2008-06-03 07:21:24 51°20.009 2°59.215 67.5 10.9 72 8.8
2008-06-03 07:21:30 51°20.015 2°59.242 66.8 10.8 72 8.8
2008-06-03 07:21:35 51°20.02 2°59.265 67.2 10.9 71 8.8
2008-06-03 07:21:40 51°20.025 2°59.288 67 10.9 71 8.8
2008-06-03 07:21:45 51°20.029 2°59.31 66.7 10.9 71 8.8
2008-06-03 07:21:50 51°20.034 2°59.333 66.7 10.8 72 8.9
2008-06-03 07:21:55 51°20.039 2°59.356 67 11 70 8.9
2008-06-03 07:22:00 51°20.044 2°59.379 66.9 10.9 71 8.8
2008-06-03 07:22:05 51°20.049 2°59.401 66.3 10.8 72 8.9
2008-06-03 07:22:10 51°20.054 2°59.424 66.6 10.9 71 8.9
2008-06-03 07:22:15 51°20.059 2°59.447 67.4 10.9 70 8.8
2008-06-03 07:22:20 51°20.063 2°59.47 67.2 10.8 72 8.8
2008-06-03 07:22:25 51°20.068 2°59.493 66.7 10.8 72 8.9
2008-06-03 07:22:30 51°20.073 2°59.516 67.3 11 71 8.8
2008-06-03 07:22:35 51°20.078 2°59.539 67.4 10.9 71 8.8
2008-06-03 07:22:40 51°20.083 2°59.561 66.6 10.8 70 8.8
2008-06-03 07:22:45 51°20.089 2°59.584 66.5 10.9 70 8.7
2008-06-03 07:22:50 51°20.095 2°59.606 66.5 11 67 8.8
2008-06-03 07:22:55 51°20.101 2°59.628 64.5 10.8 68 8.7
2008-06-03 07:23:00 51°20.107 2°59.65 63.7 10.8 67 8.9
2008-06-03 07:23:04 51°20.112 2°59.668 63.6 10.9 66 9
2008-06-03 07:23:10 51°20.119 2°59.694 62.8 10.8 64 9
2008-06-03 07:23:15 51°20.125 2°59.715 61.8 10.7 65 9
2008-06-03 07:23:20 51°20.131 2°59.737 61.7 10.9 67 9
2008-06-03 07:23:25 51°20.138 2°59.759 62.5 10.9 64 8.9
2008-06-03 07:23:30 51°20.143 2°59.781 61.7 10.7 67 9
2008-06-03 07:23:35 51°20.15 2°59.802 62.6 10.8 64 9
2008-06-03 07:23:40 51°20.156 2°59.824 62.7 10.8 66 9
2008-06-03 07:23:45 51°20.162 2°59.846 61.8 10.7 66 9
2008-06-03 07:23:50 51°20.168 2°59.868 62.6 10.8 67 8.9
2008-06-03 07:23:55 51°20.175 2°59.889 62.8 10.8 64 8.9
2008-06-03 07:24:00 51°20.18 2°59.911 61.9 10.6 68 9
2008-06-03 07:24:05 51°20.186 2°59.933 63.1 10.8 66 9
2008-06-03 07:24:10 51°20.192 2°59.955 63.5 10.9 65 8.9
2008-06-03 07:24:15 51°20.198 2°59.977 62.5 10.7 67 8.9
2008-06-03 07:24:20 51°20.204 2°59.999 63.4 10.8 67 9
2008-06-03 07:24:25 51°20.21 3°0.021 63.6 10.8 66 8.9
2008-06-03 07:24:30 51°20.216 3°0.042 62.6 10.7 68 9
2008-06-03 07:24:35 51°20.221 3°0.065 64.1 10.8 68 9
2008-06-03 07:24:40 51°20.227 3°0.087 65.1 10.8 69 8.8
2008-06-03 07:24:45 51°20.232 3°0.109 64.6 10.7 69 8.8
2008-06-03 07:24:50 51°20.237 3°0.131 65.4 10.7 71 8.8
2008-06-03 07:24:55 51°20.243 3°0.153 66 10.8 68 9.1
2008-06-03 07:25:00 51°20.248 3°0.175 65.9 10.7 70 9
2008-06-03 07:25:05 51°20.253 3°0.198 65.3 10.7 69 9
2008-06-03 07:25:10 51°20.258 3°0.22 65.6 10.7 70 8.9
2008-06-03 07:25:15 51°20.263 3°0.242 66 10.8 69 8.9
2008-06-03 07:25:20 51°20.268 3°0.264 66 10.7 70 8.8
2008-06-03 07:25:24 51°20.272 3°0.282 66.1 10.6 69 9
2008-06-03 07:25:30 51°20.279 3°0.309 66 10.8 70 9
2008-06-03 07:25:35 51°20.284 3°0.331 66.1 10.8 69 8.9
2008-06-03 07:25:40 51°20.289 3°0.354 65.5 10.7 71 8.9
2008-06-03 07:25:45 51°20.294 3°0.376 66.2 10.7 70 8.8
2008-06-03 07:25:50 51°20.299 3°0.398 66.5 10.8 70 8.9
2008-06-03 07:25:55 51°20.304 3°0.421 66.1 10.6 71 9
2008-06-03 07:26:00 51°20.309 3°0.443 66 10.7 71 8.9
2008-06-03 07:26:05 51°20.314 3°0.466 66.9 10.9 70 9
2008-06-03 07:26:10 51°20.319 3°0.488 66.7 10.6 70 9
2008-06-03 07:26:15 51°20.323 3°0.51 66 10.7 73 9
2008-06-03 07:26:20 51°20.329 3°0.533 67.3 10.8 69 9
2008-06-03 07:26:25 51°20.334 3°0.555 66.5 10.7 70 8.9
2008-06-03 07:26:30 51°20.338 3°0.578 65.4 10.6 73 9
2008-06-03 07:26:35 51°20.343 3°0.6 67.1 10.8 69 8.9
2008-06-03 07:26:40 51°20.348 3°0.622 66.5 10.7 70 9
2008-06-03 07:26:45 51°20.352 3°0.645 66 10.6 72 8.9
2008-06-03 07:26:50 51°20.358 3°0.667 67.1 10.7 70 9.1
2008-06-03 07:26:55 51°20.362 3°0.689 66.4 10.8 70 9
2008-06-03 07:27:00 51°20.367 3°0.712 66.4 10.7 71 8.9
2008-06-03 07:27:05 51°20.372 3°0.734 66.2 10.6 71 8.9
2008-06-03 07:27:10 51°20.377 3°0.757 66.7 10.7 71 8.9
2008-06-03 07:27:15 51°20.382 3°0.779 66.7 10.6 71 9.1
2008-06-03 07:27:20 51°20.386 3°0.801 66 10.6 73 9
2008-06-03 07:27:25 51°20.391 3°0.824 67 10.7 71 9.1
2008-06-03 07:27:30 51°20.396 3°0.846 67.1 10.7 69 9.2
2008-06-03 07:27:35 51°20.4 3°0.869 66.4 10.7 74 8.9
2008-06-03 07:27:40 51°20.406 3°0.891 67 10.7 71 9
2008-06-03 07:27:45 51°20.41 3°0.914 67.3 10.8 71 9.2
2008-06-03 07:27:50 51°20.415 3°0.936 66.7 10.6 70 8.9
2008-06-03 07:27:55 51°20.42 3°0.958 66.5 10.6 73 9
2008-06-03 07:28:00 51°20.424 3°0.981 66.8 10.7 72 8.9
2008-06-03 07:28:04 51°20.429 3°0.998 67.1 10.7 70 8.8
2008-06-03 07:28:10 51°20.433 3°1.025 66 10.6 73 9
2008-06-03 07:28:15 51°20.439 3°1.048 67.4 10.7 71 9
2008-06-03 07:28:20 51°20.443 3°1.071 67.1 10.8 72 9
2008-06-03 07:28:25 51°20.448 3°1.093 66.7 10.7 72 9
2008-06-03 07:28:30 51°20.453 3°1.115 66.7 10.6 72 8.9
2008-06-03 07:28:35 51°20.457 3°1.138 66.9 10.8 72 9
2008-06-03 07:28:40 51°20.462 3°1.161 67.4 10.7 71 8.9
2008-06-03 07:28:45 51°20.466 3°1.184 66.4 10.7 75 9
2008-06-03 07:28:50 51°20.47 3°1.206 67.9 10.8 73 9
2008-06-03 07:28:55 51°20.474 3°1.23 68.4 10.8 76 9
2008-06-03 07:29:00 51°20.478 3°1.253 69.6 10.8 74 9
2008-06-03 07:29:05 51°20.482 3°1.276 69.8 10.8 76 9
2008-06-03 07:29:10 51°20.485 3°1.299 69.9 10.9 76 9
2008-06-03 07:29:15 51°20.489 3°1.322 70.8 10.9 75 8.9
2008-06-03 07:29:20 51°20.493 3°1.346 69.9 10.8 76 8.9
2008-06-03 07:29:25 51°20.497 3°1.369 70.6 10.9 76 8.9
2008-06-03 07:29:30 51°20.501 3°1.393 70.7 10.9 75 8.9
2008-06-03 07:29:35 51°20.504 3°1.416 70.4 10.9 75 8.8
2008-06-03 07:29:40 51°20.508 3°1.439 70.3 10.9 75 8.8
2008-06-03 07:29:45 51°20.512 3°1.463 70.4 11 75 8.9
2008-06-03 07:29:50 51°20.516 3°1.486 70.4 10.9 75 8.9
2008-06-03 07:29:55 51°20.52 3°1.509 70.2 10.9 74 8.8
2008-06-03 07:30:00 51°20.524 3°1.533 69.8 11 76 8.7
2008-06-03 07:30:05 51°20.528 3°1.556 70.1 10.9 74 8.8
2008-06-03 07:30:10 51°20.532 3°1.58 70 11 76 8.7
2008-06-03 07:30:15 51°20.536 3°1.603 70.4 11 73 8.8
2008-06-03 07:30:20 51°20.54 3°1.627 69.8 11 75 8.7
2008-06-03 07:30:25 51°20.544 3°1.65 69.8 11 74 8.7
2008-06-03 07:30:30 51°20.548 3°1.673 69.8 11 74 8.7
2008-06-03 07:30:35 51°20.553 3°1.696 69.5 11 73 8.7
2008-06-03 07:30:40 51°20.557 3°1.72 69.1 10.9 73 8.8
2008-06-03 07:30:45 51°20.561 3°1.743 68.3 11 73 8.7
2008-06-03 07:30:50 51°20.565 3°1.766 68.8 11.1 73 8.7
2008-06-03 07:30:55 51°20.57 3°1.79 68.9 11 73 8.7
2008-06-03 07:31:00 51°20.574 3°1.813 68.9 10.9 75 8.7
2008-06-03 07:31:05 51°20.578 3°1.836 69.5 10.9 73 8.8
2008-06-03 07:31:10 51°20.583 3°1.859 69.5 10.9 73 8.7
2008-06-03 07:31:15 51°20.588 3°1.881 68.6 10.9 71 8.7
2008-06-03 07:31:20 51°20.593 3°1.904 67.1 10.8 71 8.7
2008-06-03 07:31:25 51°20.598 3°1.926 66.5 10.8 70 8.7
2008-06-03 07:31:30 51°20.603 3°1.949 65.9 10.9 68 8.8
2008-06-03 07:31:35 51°20.609 3°1.971 64.9 10.7 67 8.7
2008-06-03 07:31:40 51°20.615 3°1.993 63.8 10.7 69 8.7
2008-06-03 07:31:45 51°20.62 3°2.015 64.3 10.8 69 8.8
2008-06-03 07:31:50 51°20.625 3°2.038 64.9 10.9 70 8.8
2008-06-03 07:31:55 51°20.63 3°2.06 65.8 10.7 69 8.8
2008-06-03 07:32:00 51°20.635 3°2.083 65.9 10.8 72 8.7
2008-06-03 07:32:05 51°20.64 3°2.105 67.2 10.9 70 8.7
2008-06-03 07:32:10 51°20.645 3°2.128 66.7 10.8 72 8.7
2008-06-03 07:32:15 51°20.65 3°2.15 66.7 10.8 72 8.7
2008-06-03 07:32:20 51°20.654 3°2.173 67.3 10.9 72 8.7
2008-06-03 07:32:24 51°20.658 3°2.192 67.4 10.8 72 8.8
2008-06-03 07:32:30 51°20.664 3°2.219 67.2 10.8 72 8.7
2008-06-03 07:32:35 51°20.668 3°2.241 67.5 10.8 72 8.8
2008-06-03 07:32:40 51°20.673 3°2.264 67.9 10.9 71 8.7
2008-06-03 07:32:45 51°20.678 3°2.287 67.2 10.8 71 8.8
2008-06-03 07:32:50 51°20.683 3°2.309 66.6 10.8 71 8.9
2008-06-03 07:32:55 51°20.688 3°2.332 67 10.9 70 8.8
2008-06-03 07:33:00 51°20.694 3°2.354 66.7 10.8 68 8.8
2008-06-03 07:33:05 51°20.699 3°2.376 65.2 10.8 68 8.8
2008-06-03 07:33:10 51°20.705 3°2.398 64.5 10.8 66 8.8
2008-06-03 07:33:15 51°20.711 3°2.421 63.6 10.9 68 8.7
2008-06-03 07:33:20 51°20.717 3°2.443 63.2 10.8 67 8.8
2008-06-03 07:33:25 51°20.722 3°2.465 64 10.8 70 8.8
2008-06-03 07:33:30 51°20.727 3°2.488 65 10.9 69 8.8
2008-06-03 07:33:35 51°20.732 3°2.51 65.9 10.9 70 8.8
2008-06-03 07:33:40 51°20.737 3°2.533 65.9 10.9 70 8.9
2008-06-03 07:33:45 51°20.743 3°2.556 65.8 11 68 8.8
2008-06-03 07:33:50 51°20.749 3°2.578 64.8 10.9 68 8.8
2008-06-03 07:33:55 51°20.755 3°2.6 64 10.9 67 8.8
2008-06-03 07:34:00 51°20.761 3°2.622 63.8 10.9 66 8.8
2008-06-03 07:34:05 51°20.767 3°2.644 62.9 10.9 67 8.9
2008-06-03 07:34:10 51°20.773 3°2.666 62.7 10.9 65 8.8
2008-06-03 07:34:15 51°20.779 3°2.688 62.4 10.9 66 8.9
2008-06-03 07:34:20 51°20.786 3°2.71 62.4 10.9 66 8.8
2008-06-03 07:34:25 51°20.792 3°2.732 62.3 10.9 66 8.8
2008-06-03 07:34:30 51°20.798 3°2.754 62 11 66 8.9
2008-06-03 07:34:35 51°20.804 3°2.777 62.3 10.9 66 8.9
2008-06-03 07:34:40 51°20.81 3°2.799 62.4 10.9 67 8.9
2008-06-03 07:34:44 51°20.815 3°2.817 63 11 66 8.9
2008-06-03 07:34:50 51°20.822 3°2.843 63.5 10.9 66 8.9
2008-06-03 07:34:55 51°20.829 3°2.865 63.2 10.9 65 8.9
2008-06-03 07:35:00 51°20.835 3°2.887 63 10.9 66 8.9
2008-06-03 07:35:05 51°20.841 3°2.909 63 10.8 66 8.9
2008-06-03 07:35:10 51°20.846 3°2.931 63 10.8 67 8.9
2008-06-03 07:35:15 51°20.852 3°2.953 63.1 10.8 67 9
2008-06-03 07:35:20 51°20.858 3°2.975 63.4 10.8 67 9
2008-06-03 07:35:25 51°20.864 3°2.997 63.4 10.8 67 8.9
2008-06-03 07:35:30 51°20.87 3°3.019 63.7 10.8 67 8.9
2008-06-03 07:35:35 51°20.876 3°3.041 63.7 10.8 67 8.9
2008-06-03 07:35:40 51°20.881 3°3.063 64 10.8 68 9
2008-06-03 07:35:45 51°20.887 3°3.085 63.9 10.8 67 9
2008-06-03 07:35:50 51°20.893 3°3.107 63.5 10.8 67 9
2008-06-03 07:35:55 51°20.899 3°3.129 63.6 10.7 68 9
2008-06-03 07:36:00 51°20.904 3°3.151 64.1 10.7 67 9
2008-06-03 07:36:05 51°20.91 3°3.173 63.8 10.7 67 9
2008-06-03 07:36:10 51°20.916 3°3.195 63.9 10.6 68 9
2008-06-03 07:36:15 51°20.922 3°3.217 64.2 10.7 67 9
2008-06-03 07:36:20 51°20.927 3°3.238 64.3 10.6 67 9
2008-06-03 07:36:25 51°20.933 3°3.26 63.8 10.6 68 9
2008-06-03 07:36:30 51°20.939 3°3.282 64.2 10.7 67 9
2008-06-03 07:36:35 51°20.945 3°3.304 63.9 10.6 66 9
2008-06-03 07:36:40 51°20.95 3°3.326 63.8 10.6 69 9.1
2008-06-03 07:36:45 51°20.956 3°3.348 64.5 10.7 68 9.1
2008-06-03 07:36:50 51°20.961 3°3.37 64.9 10.7 68 9
2008-06-03 07:36:55 51°20.967 3°3.392 64.5 10.7 67 9.1
2008-06-03 07:37:00 51°20.972 3°3.414 64.6 10.7 68 9.1
2008-06-03 07:37:05 51°20.978 3°3.435 64.6 10.7 67 9.1
2008-06-03 07:37:10 51°20.984 3°3.457 64.7 10.7 67 9.2
2008-06-03 07:37:15 51°20.99 3°3.479 64.3 10.8 68 9.2
2008-06-03 07:37:20 51°20.995 3°3.501 64.7 10.8 67 9.1
2008-06-03 07:37:25 51°21.001 3°3.523 64.5 10.7 68 9.2
2008-06-03 07:37:30 51°21.007 3°3.545 64.5 10.7 68 9.2
2008-06-03 07:37:35 51°21.013 3°3.567 65 10.7 67 9.2
2008-06-03 07:37:40 51°21.018 3°3.589 64.3 10.7 68 9.2
2008-06-03 07:37:45 51°21.024 3°3.611 64.9 10.6 67 9.2
2008-06-03 07:37:50 51°21.03 3°3.633 64.8 10.6 68 9.2
2008-06-03 07:37:55 51°21.035 3°3.655 64.7 10.6 69 9.3
2008-06-03 07:38:00 51°21.04 3°3.677 65.2 10.7 70 9.3
2008-06-03 07:38:05 51°21.045 3°3.699 66.6 10.7 70 9.3
2008-06-03 07:38:10 51°21.05 3°3.722 67.2 10.7 70 9.3
2008-06-03 07:38:15 51°21.055 3°3.744 67.3 10.7 69 9.2
2008-06-03 07:38:20 51°21.061 3°3.766 66.9 10.7 68 9.2
2008-06-03 07:38:25 51°21.066 3°3.787 66 10.7 68 9.3
2008-06-03 07:38:30 51°21.072 3°3.81 65.2 10.7 68 9.3
2008-06-03 07:38:35 51°21.078 3°3.831 65.2 10.6 68 9.3
2008-06-03 07:38:40 51°21.084 3°3.853 65.4 10.6 66 9.3
2008-06-03 07:38:44 51°21.088 3°3.871 65.2 10.7 68 9.3
2008-06-03 07:38:50 51°21.095 3°3.897 65.1 10.6 67 9.4
2008-06-03 07:38:55 51°21.101 3°3.918 64.6 10.6 67 9.3
2008-06-03 07:39:00 51°21.107 3°3.94 64.5 10.7 66 9.4
2008-06-03 07:39:04 51°21.111 3°3.957 64.2 10.6 67 9.4
2008-06-03 07:39:10 51°21.118 3°3.983 64.5 10.7 66 9.4
2008-06-03 07:39:15 51°21.124 3°4.005 64.5 10.6 66 9.4
2008-06-03 07:39:20 51°21.13 3°4.027 64 10.6 67 9.3
2008-06-03 07:39:25 51°21.136 3°4.048 63.8 10.6 66 9.3
2008-06-03 07:39:30 51°21.142 3°4.07 64 10.7 68 9.3
2008-06-03 07:39:35 51°21.148 3°4.091 64.4 10.6 66 9.3
2008-06-03 07:39:40 51°21.153 3°4.113 64.2 10.6 69 9.4
2008-06-03 07:39:45 51°21.159 3°4.135 65.1 10.6 66 9.4
2008-06-03 07:39:50 51°21.165 3°4.157 64.8 10.7 69 9.3
2008-06-03 07:39:55 51°21.171 3°4.178 65.3 10.6 67 9.3
2008-06-03 07:40:00 51°21.176 3°4.2 65.2 10.7 68 9.4
2008-06-03 07:40:05 51°21.181 3°4.222 65.4 10.7 69 9.4
2008-06-03 07:40:10 51°21.186 3°4.244 66.3 10.7 69 9.4
2008-06-03 07:40:15 51°21.191 3°4.267 66.7 10.8 71 9.3
2008-06-03 07:40:20 51°21.196 3°4.289 67.7 10.8 70 9.3
2008-06-03 07:40:25 51°21.201 3°4.312 67.7 10.7 72 9.3
2008-06-03 07:40:30 51°21.206 3°4.335 68.2 10.8 71 9.4
2008-06-03 07:40:35 51°21.211 3°4.357 68.8 10.8 71 9.3
2008-06-03 07:40:40 51°21.216 3°4.38 68.9 10.8 72 9.4
2008-06-03 07:40:45 51°21.221 3°4.402 68.8 10.8 68 9.4
2008-06-03 07:40:50 51°21.226 3°4.425 67.6 10.8 69 9.4
2008-06-03 07:40:55 51°21.232 3°4.446 66.7 10.7 68 9.4
2008-06-03 07:41:00 51°21.238 3°4.469 66 10.8 67 9.4
2008-06-03 07:41:05 51°21.244 3°4.49 65.2 10.8 65 9.5
2008-06-03 07:41:10 51°21.25 3°4.512 64.3 10.8 67 9.4
2008-06-03 07:41:15 51°21.256 3°4.534 64.5 10.8 66 9.4
2008-06-03 07:41:20 51°21.262 3°4.556 64.4 10.8 67 9.6
2008-06-03 07:41:24 51°21.267 3°4.574 64.5 10.8 66 9.5
2008-06-03 07:41:30 51°21.274 3°4.599 64.4 10.8 65 9.4
2008-06-03 07:41:35 51°21.28 3°4.621 64.5 10.8 66 9.4
2008-06-03 07:41:40 51°21.286 3°4.643 64.3 10.8 66 9.5
2008-06-03 07:41:45 51°21.292 3°4.665 64.5 10.8 67 9.5
2008-06-03 07:41:50 51°21.298 3°4.687 65 10.8 67 9.5
2008-06-03 07:41:55 51°21.304 3°4.709 64.9 10.7 65 9.5
2008-06-03 07:42:00 51°21.31 3°4.731 64.7 10.7 66 9.5
2008-06-03 07:42:05 51°21.316 3°4.753 64.2 10.8 66 9.6
2008-06-03 07:42:10 51°21.322 3°4.775 64.4 10.8 67 9.6
2008-06-03 07:42:15 51°21.328 3°4.796 64.7 10.8 65 9.5
2008-06-03 07:42:20 51°21.334 3°4.818 64.3 10.8 68 9.5
2008-06-03 07:42:25 51°21.34 3°4.84 64.6 10.8 65 9.5
2008-06-03 07:42:30 51°21.346 3°4.862 64.8 10.8 66 9.5
2008-06-03 07:42:35 51°21.352 3°4.884 64.3 10.8 66 9.7
2008-06-03 07:42:40 51°21.359 3°4.906 64.4 10.9 67 9.6
2008-06-03 07:42:45 51°21.365 3°4.928 65.2 10.9 65 9.5
2008-06-03 07:42:50 51°21.371 3°4.95 64.5 10.9 67 9.6
2008-06-03 07:42:55 51°21.377 3°4.972 64.7 10.9 66 9.6
2008-06-03 07:43:00 51°21.383 3°4.994 64.7 10.9 66 9.6
2008-06-03 07:43:05 51°21.39 3°5.016 64.9 10.9 65 9.7
2008-06-03 07:43:10 51°21.396 3°5.038 64.5 10.9 66 9.7
2008-06-03 07:43:15 51°21.402 3°5.06 64.5 11 66 9.7
2008-06-03 07:43:20 51°21.408 3°5.082 65.2 10.9 65 9.6
2008-06-03 07:43:24 51°21.413 3°5.1 64.5 10.9 67 9.6
2008-06-03 07:43:30 51°21.42 3°5.127 65.2 10.9 68 9.7
2008-06-03 07:43:35 51°21.425 3°5.15 66.4 10.9 69 9.7
2008-06-03 07:43:40 51°21.43 3°5.173 67.1 10.9 70 9.7
2008-06-03 07:43:45 51°21.435 3°5.195 68.1 10.9 70 9.6
2008-06-03 07:43:50 51°21.44 3°5.218 68.5 10.9 71 9.7
2008-06-03 07:43:55 51°21.446 3°5.241 68.7 10.9 70 9.7
2008-06-03 07:44:00 51°21.451 3°5.264 68.3 10.9 70 9.7
2008-06-03 07:44:04 51°21.455 3°5.282 68.2 10.9 71 9.8
2008-06-03 07:44:10 51°21.461 3°5.309 68.8 11 69 9.7
2008-06-03 07:44:15 51°21.467 3°5.332 67.9 11 69 9.7
2008-06-03 07:44:20 51°21.472 3°5.355 67.6 11 70 9.7
2008-06-03 07:44:25 51°21.477 3°5.378 68 11 69 9.6
2008-06-03 07:44:30 51°21.483 3°5.401 68.1 11.1 70 9.7
2008-06-03 07:44:35 51°21.488 3°5.424 67.9 11 69 9.7
2008-06-03 07:44:40 51°21.493 3°5.447 67.6 11 70 9.6
2008-06-03 07:44:45 51°21.499 3°5.47 68 11.1 69 9.7
2008-06-03 07:44:50 51°21.504 3°5.493 67.8 11.1 69 9.8
2008-06-03 07:44:55 51°21.51 3°5.516 67.6 11 69 9.7
2008-06-03 07:45:00 51°21.515 3°5.539 67.5 11.1 69 9.8
2008-06-03 07:45:05 51°21.521 3°5.562 67.5 11.2 68 9.8
2008-06-03 07:45:10 51°21.527 3°5.585 66.9 11 68 9.8
2008-06-03 07:45:15 51°21.532 3°5.608 66.7 11 69 9.8
2008-06-03 07:45:20 51°21.538 3°5.631 67.3 11.1 68 9.7
2008-06-03 07:45:25 51°21.543 3°5.654 67.4 11.1 68 9.7
2008-06-03 07:45:30 51°21.55 3°5.676 66.7 10.9 67 9.7
2008-06-03 07:45:35 51°21.555 3°5.698 66.4 11 68 9.8